• Join FlightAware (Why Join?)
  • Login
  • US Flag GB Flag 
16:36 EDT


 

Airport Tracker/Info


-or-


 

Live Flight TrackerFlight Track Log ✈ N75ZM ✈ 07-May-2013 ✈ KPDK - KILM

Flight Track Log - Related Links

Times and Time Zones

All times are in EDT time to prevent confusion due to time zone crossing. See the N75ZM flight status page for this flight to view local times or setup timezone preferences in your user account.

Time Position Orientation Groundspeed Altitude Reporting Facility
EDT Latitude Longitude Course Direction KTS MPH feet Rate Location/Type
16:04 33.8667 -84.2833 90° East 121 139 2,200  Level Atlanta TRACON
16:05 33.8667 -84.2500 90° East 135 155 3,000 420 Climbing Atlanta TRACON
16:06 33.8833 -84.2000 68° East 179 206 3,100 660 Climbing Atlanta TRACON
16:07 33.9000 -84.1667 59° Northeast 137 158 4,300 960 Climbing Atlanta TRACON
16:08 33.9333 -84.1167 51° Northeast 139 160 5,100 360 Climbing Atlanta TRACON
16:09 33.9500 -84.0667 68° East 171 197 5,100 -60 Level Atlanta TRACON
16:10 33.9667 -84.0167 68° East 181 208 5,000  Descending Atlanta TRACON
16:11 33.9667 -83.9500 90° East 177 204 5,100  Climbing Atlanta TRACON
16:12 33.9667 -83.9000 90° East 178 205 5,000 420 Descending Atlanta TRACON
16:13 33.9667 -83.8500 90° East 143 165 6,000 720 Climbing Atlanta TRACON
16:14 33.9500 -83.8000 112° Southeast 146 168 6,500 540 Climbing Atlanta TRACON
16:15 33.9500 -83.7500 90° East 147 169 7,100 600 Climbing Atlanta TRACON
16:16 33.9500 -83.7000 90° East 150 173 7,700 600 Climbing Atlanta TRACON
16:17 33.9500 -83.6500 90° East 150 173 8,400 600 Climbing Atlanta TRACON
16:18 33.9667 -83.6000 68° East 146 168 9,000 360 Climbing Atlanta TRACON
16:19 33.9667 -83.5500 90° East 163 188 9,100  Climbing Atlanta TRACON
16:20 33.9667 -83.4833 90° East 175 201 9,000  Descending Atlanta TRACON
16:21 33.9667 -83.4333 90° East 173 199 9,100  Climbing Atlanta TRACON
16:22 33.9833 -83.3667 73° East 175 201 9,000  Descending Atlanta TRACON
16:23 33.9833 -83.3167 90° East 173 199 9,100  Climbing Atlanta TRACON
16:23 33.9839 -83.2772 89° East 166 191 9,000  Descending Atlanta Center
16:24 33.9897 -83.2219 83° East 166 191 9,100  Climbing Atlanta Center
16:25 33.9914 -83.1669 88° East 172 198 9,000  Descending Atlanta Center
16:26 33.9975 -83.1117 82° East 172 198 9,100  Climbing Atlanta Center
16:27 34.0011 -83.0517 86° East 172 198 9,100  Level Atlanta Center
16:28 34.0069 -82.9914 83° East 178 205 9,100 -60 Level Atlanta Center
16:29 34.0106 -82.9336 86° East 178 205 9,000  Descending Atlanta Center
16:30 34.0161 -82.8733 84° East 178 205 9,100  Climbing Atlanta Center
16:31 34.0197 -82.8183 85° East 178 205 9,100  Level Atlanta Center
16:32 34.0233 -82.7581 86° East 178 205 9,100  Level Atlanta Center
16:33 34.0269 -82.7003 86° East 178 205 9,100  Level Atlanta Center
16:34 34.0325 -82.6400 84° East 178 205 9,100  Level Atlanta Center
16:35 34.0381 -82.5797 84° East 178 205 9,100  Level Atlanta Center
16:36 34.0417 -82.5197 86° East 178 205 9,100  Level Atlanta Center
16:37 34.0431 -82.4619 88° East 178 205 9,100  Level Atlanta Center
16:38 34.0483 -82.4042 84° East 178 205 9,100  Level Atlanta Center
16:39 34.0519 -82.3464 86° East 178 205 9,100  Level Atlanta Center
16:40 34.0553 -82.2911 86° East 178 205 9,100  Level Atlanta Center
16:41 34.0586 -82.2333 86° East 178 205 9,100  Level Atlanta Center
16:42 34.0639 -82.1781 83° East 178 205 9,100  Level Atlanta Center
16:43 34.0672 -82.1203 86° East 178 205 9,100  Level Atlanta Center
16:44 34.0706 -82.0603 86° East 178 205 9,100  Level Atlanta Center
16:45 34.0739 -82.0050 86° East 178 205 9,100  Level Atlanta Center
16:46 34.0792 -81.9469 84° East 178 205 9,100  Level Atlanta Center
16:47 34.0822 -81.8869 86° East 178 205 9,100  Level Atlanta Center
16:48 34.0833 -81.8367 88° East 178 205 9,100 -60 Level Atlanta Center
16:49 34.0886 -81.7789 84° East 178 205 9,000 -120 Descending Atlanta Center
16:51 34.0932 -81.7106 85° East  Level FlightAware Approximate
16:58 34.1183 -81.3278 85° East  Level FlightAware Approximate
16:59 34.1218 -81.2731 86° East  Level FlightAware Approximate
17:00 34.1253 -81.2184 86° East  Level FlightAware Approximate
17:01 34.1287 -81.1637 86° East  Level FlightAware Approximate
17:02 34.1321 -81.1090 86° East  Level FlightAware Approximate
17:03 34.1355 -81.0543 86° East  Level FlightAware Approximate
17:04 34.1389 -80.9996 86° East  Level FlightAware Approximate
17:05 34.1423 -80.9448 86° East  Level FlightAware Approximate
17:06 34.1456 -80.8901 86° East  Level FlightAware Approximate
17:07 34.1489 -80.8354 86° East  Level FlightAware Approximate
17:08 34.1517 -80.7804 87° East  Level FlightAware Approximate
17:09 34.1542 -80.7256 87° East  Level FlightAware Approximate
17:10 34.1567 -80.6708 87° East  Level FlightAware Approximate
17:11 34.1592 -80.6160 87° East  Level FlightAware Approximate
17:12 34.1616 -80.5612 87° East  Level FlightAware Approximate
17:13 34.1641 -80.5064 87° East  Level FlightAware Approximate
17:14 34.1665 -80.4516 87° East  Level FlightAware Approximate
17:15 34.1688 -80.3968 87° East  Level FlightAware Approximate
17:16 34.1712 -80.3420 87° East  Level FlightAware Approximate
17:17 34.1735 -80.2871 87° East  Level FlightAware Approximate
17:18 34.1758 -80.2323 87° East  Level FlightAware Approximate
17:19 34.1781 -80.1775 87° East  Level FlightAware Approximate
17:20 34.1804 -80.1227 87° East  Level FlightAware Approximate
17:21 34.1826 -80.0678 87° East  Level FlightAware Approximate
17:22 34.1854 -80.0130 86° East  Level FlightAware Approximate
17:23 34.1883 -79.9583 86° East  Level FlightAware Approximate
17:24 34.1913 -79.9035 86° East  Level FlightAware Approximate
17:25 34.1942 -79.8487 86° East  Level FlightAware Approximate
17:26 34.1971 -79.7939 86° East  Level FlightAware Approximate
17:27 34.2000 -79.7391 86° East  Level FlightAware Approximate
17:28 34.2029 -79.6843 86° East  Level FlightAware Approximate
17:29 34.2057 -79.6295 86° East  Level FlightAware Approximate
17:30 34.2085 -79.5747 86° East  Level FlightAware Approximate
17:31 34.2113 -79.5198 86° East  Level FlightAware Approximate
17:32 34.2140 -79.4650 87° East  Level FlightAware Approximate
17:33 34.2168 -79.4102 87° East  Level FlightAware Approximate
17:34 34.2196 -79.3539 87° East  Level FlightAware Approximate
17:35 34.2223 -79.2977 87° East  Level FlightAware Approximate
17:36 34.2250 -79.2414 87° East  Level FlightAware Approximate
17:37 34.2277 -79.1851 87° East  Level FlightAware Approximate
17:38 34.2304 -79.1288 87° East  Level FlightAware Approximate
17:39 34.2331 -79.0725 87° East  Level FlightAware Approximate
17:40 34.2349 -79.0162 88° East  Level FlightAware Approximate
17:41 34.2365 -78.9598 88° East  Level FlightAware Approximate
17:42 34.2382 -78.9031 88° East  Level FlightAware Approximate
17:43 34.2398 -78.8464 88° East  Level FlightAware Approximate
17:44 34.2414 -78.7897 88° East  Level FlightAware Approximate
17:45 34.2430 -78.7330 88° East  Level FlightAware Approximate
17:46 34.2445 -78.6763 88° East  Level FlightAware Approximate
17:47 34.2460 -78.6196 88° East  Level FlightAware Approximate
17:48 34.2475 -78.5629 88° East  Level FlightAware Approximate
17:49 34.2490 -78.5062 88° East  Level FlightAware Approximate
17:50 34.2500 -78.4494 90° East  Level FlightAware Approximate
17:51 34.2501 -78.3927 90° East  Level FlightAware Approximate
17:52 34.2501 -78.3360 90° East  Level FlightAware Approximate
17:53 34.2501 -78.2792 90° East  Level FlightAware Approximate
17:54 34.2501 -78.2225 90° East  Level FlightAware Approximate
17:55 34.2501 -78.1657 90° East  Level FlightAware Approximate
17:56 34.2511 -78.1091 80° East  Level FlightAware Approximate
17:57 34.2591 -78.0532 80° East  Level FlightAware Approximate
17:58 34.2667 -77.9972 90° East  Level FlightAware Approximate
17:59 34.2667 -77.9405 90° East  Level FlightAware Approximate
18:00 34.2667 -77.9000 90° East  Level FlightAware Approximate